Mapleton, Oregon
Current Conditions -  °F | °C
As of 6:05 AM on Saturday 22 Nov 2014 (Local Time) from KEUG Reporting Station
Moderate Rain Moderate Rain  
Wind Chill: 50°   Ceiling: 3500
Heat Index: 50°   Visibility: 4mi
Dew Point: 45°   Wind: 10mph
Humidity: 83%   Direction: 280°W
Pressure: 29.82"   Gusts: NA
Location:  44.03°N, 123.86°W
Report Text: KEUG 221405Z 28009KT 4SM RA FEW008 SCT025 OVC035 10/07 A2982 RMK AO2 P0010 T01000072
Loading
Personal Weather Stations






























Interactive Weather Map New forecast layout! Learn more

10-Day Weather Forecast

Advertisements
Track Severe Weather on mobile